createdAt,value
2019-03-03T00:00:00.053Z,6.70
2019-03-03T00:04:05.410Z,6.74
2019-03-03T00:08:10.240Z,6.77
2019-03-03T00:12:14.461Z,6.76
2019-03-03T00:16:19.874Z,6.75
2019-03-03T00:20:24.396Z,6.72
2019-03-03T00:24:28.818Z,6.72
2019-03-03T00:28:33.008Z,6.72
2019-03-03T00:32:37.247Z,6.71
2019-03-03T00:36:59.314Z,6.73
2019-03-03T00:41:21.416Z,6.77
2019-03-03T00:45:38.784Z,6.83
2019-03-03T00:49:59.800Z,6.88
2019-03-03T00:54:35.147Z,6.82
2019-03-03T00:58:59.460Z,6.87
2019-03-03T01:03:09.546Z,6.89
2019-03-03T01:07:32.702Z,6.89
2019-03-03T01:12:04.855Z,6.92
2019-03-03T01:16:18.410Z,7.00
2019-03-03T01:20:28.208Z,7.03
2019-03-03T01:24:57.638Z,7.08
2019-03-03T01:29:01.880Z,7.11
2019-03-03T01:33:06.096Z,7.14
2019-03-03T01:37:10.314Z,7.18
2019-03-03T01:41:14.548Z,7.19
2019-03-03T01:45:18.730Z,7.15
2019-03-03T01:49:22.942Z,7.11
2019-03-03T01:53:27.162Z,7.08
2019-03-03T01:57:31.422Z,7.10
2019-03-03T02:01:36.124Z,7.08
2019-03-03T02:05:40.375Z,7.07
2019-03-03T02:09:44.624Z,7.06
2019-03-03T02:13:48.967Z,7.09
2019-03-03T02:17:53.433Z,7.09
2019-03-03T02:21:57.992Z,7.10
2019-03-03T02:26:02.977Z,7.11
2019-03-03T02:30:12.424Z,7.09
2019-03-03T02:34:16.720Z,7.11
2019-03-03T02:38:20.918Z,7.12
2019-03-03T02:42:25.148Z,7.12
2019-03-03T02:46:29.338Z,7.10
2019-03-03T02:50:33.534Z,6.98
2019-03-03T02:54:37.889Z,6.94
2019-03-03T02:58:42.139Z,6.94
2019-03-03T03:02:50.751Z,6.86
2019-03-03T03:11:23.717Z,6.84
2019-03-03T03:15:46.035Z,6.84
2019-03-03T03:19:59.595Z,6.85
2019-03-03T03:24:28.943Z,6.82
2019-03-03T03:28:58.034Z,6.79
2019-03-03T03:33:18.703Z,6.81
2019-03-03T03:37:32.204Z,6.87
2019-03-03T03:41:44.845Z,6.91
2019-03-03T03:46:06.751Z,6.96
2019-03-03T03:50:23.608Z,7.02
2019-03-03T03:54:45.723Z,7.05
2019-03-03T03:59:07.797Z,7.02
2019-03-03T04:03:29.749Z,6.97
2019-03-03T04:08:02.133Z,6.93
2019-03-03T04:12:24.466Z,6.87
2019-03-03T04:16:34.740Z,6.85
2019-03-03T04:21:06.840Z,6.84
2019-03-03T04:25:18.464Z,6.99
2019-03-03T04:29:32.017Z,7.24
2019-03-03T04:33:47.776Z,7.45
2019-03-03T04:38:05.144Z,7.63
2019-03-03T04:42:19.164Z,7.82
2019-03-03T04:46:41.299Z,7.94
2019-03-03T04:50:57.955Z,8.03
2019-03-03T04:55:19.937Z,8.14
2019-03-03T04:59:43.029Z,8.23
2019-03-03T05:04:00.458Z,8.32
2019-03-03T05:08:21.977Z,8.38
2019-03-03T05:12:57.015Z,8.42
2019-03-03T05:17:08.738Z,8.50
2019-03-03T05:21:13.098Z,8.52
2019-03-03T05:25:17.317Z,8.55
2019-03-03T05:29:21.555Z,8.59
2019-03-03T05:37:29.077Z,8.63
2019-03-03T05:41:33.310Z,8.65
2019-03-03T05:45:37.581Z,8.68
2019-03-03T05:49:41.780Z,8.67
2019-03-03T05:53:46.001Z,8.72
2019-03-03T05:57:50.592Z,8.76
2019-03-03T06:01:54.784Z,8.78
2019-03-03T06:05:59.025Z,8.80
2019-03-03T06:10:03.252Z,8.84
2019-03-03T06:14:07.906Z,8.84
2019-03-03T06:18:12.542Z,8.87
2019-03-03T06:22:16.768Z,8.89
2019-03-03T06:26:20.997Z,8.92
2019-03-03T06:30:25.643Z,8.94
2019-03-03T06:34:29.873Z,8.95
2019-03-03T06:38:34.108Z,8.96
2019-03-03T06:42:38.747Z,8.98
2019-03-03T06:46:42.928Z,8.99
2019-03-03T06:50:47.157Z,9.02
2019-03-03T06:54:51.362Z,9.04
2019-03-03T06:58:55.642Z,9.07
2019-03-03T07:02:59.829Z,9.07
2019-03-03T07:07:04.417Z,9.12
2019-03-03T07:11:10.121Z,9.13
2019-03-03T07:15:15.916Z,9.16
2019-03-03T07:19:20.161Z,9.16
2019-03-03T07:23:24.366Z,9.21
2019-03-03T07:27:28.597Z,9.24
2019-03-03T07:31:32.776Z,9.27
2019-03-03T07:35:36.979Z,9.32
2019-03-03T07:39:41.211Z,9.35
2019-03-03T07:43:45.450Z,9.41
2019-03-03T07:47:49.624Z,9.49
2019-03-03T07:51:53.884Z,9.52
2019-03-03T07:55:58.175Z,9.58
2019-03-03T08:00:02.370Z,9.65
2019-03-03T08:04:06.603Z,9.70
2019-03-03T08:08:10.844Z,9.79
2019-03-03T08:12:15.080Z,9.95
2019-03-03T08:16:19.324Z,10.15
2019-03-03T08:20:23.678Z,10.33
2019-03-03T08:24:27.876Z,10.51
2019-03-03T08:28:32.189Z,10.71
2019-03-03T08:32:36.588Z,10.88
2019-03-03T08:36:40.825Z,11.03
2019-03-03T08:40:45.203Z,11.22
2019-03-03T08:45:08.401Z,11.26
2019-03-03T08:49:40.900Z,11.24
2019-03-03T08:53:53.525Z,11.20
2019-03-03T08:58:15.139Z,11.21
2019-03-03T09:02:38.508Z,11.21
2019-03-03T09:06:59.580Z,11.31
2019-03-03T09:11:21.922Z,11.37
2019-03-03T09:16:03.530Z,11.50
2019-03-03T09:20:30.834Z,11.59
2019-03-03T09:25:03.273Z,11.68
2019-03-03T09:29:26.935Z,11.68
2019-03-03T09:33:42.889Z,11.68
2019-03-03T09:38:00.439Z,11.71
2019-03-03T09:42:22.497Z,11.78
2019-03-03T09:46:33.354Z,11.85
2019-03-03T09:50:54.025Z,11.93
2019-03-03T09:55:32.352Z,11.88
2019-03-03T10:00:10.621Z,11.88
2019-03-03T10:04:46.022Z,11.96
2019-03-03T10:09:24.419Z,11.96
2019-03-03T10:13:38.179Z,12.01
2019-03-03T10:18:08.056Z,12.04
2019-03-03T10:22:34.083Z,12.15
2019-03-03T10:27:03.635Z,12.30
2019-03-03T10:31:30.019Z,12.30
2019-03-03T10:36:03.484Z,12.58
2019-03-03T10:40:34.591Z,12.58
2019-03-03T10:45:01.078Z,12.72
2019-03-03T10:49:15.133Z,12.83
2019-03-03T10:53:29.083Z,12.96
2019-03-03T10:58:03.939Z,13.02
2019-03-03T11:02:20.395Z,13.13
2019-03-03T11:06:54.751Z,13.18
2019-03-03T11:11:13.860Z,13.15
2019-03-03T11:15:40.336Z,13.12
2019-03-03T11:20:03.315Z,13.08
2019-03-03T11:24:22.465Z,13.00
2019-03-03T11:28:49.716Z,13.04
2019-03-03T11:33:16.318Z,13.01
2019-03-03T11:37:42.574Z,13.04
2019-03-03T11:42:24.415Z,13.06
2019-03-03T11:46:38.841Z,13.10
2019-03-03T11:50:57.633Z,13.18
2019-03-03T11:55:19.886Z,13.28
2019-03-03T12:03:59.126Z,13.52
2019-03-03T12:08:28.399Z,13.61
2019-03-03T12:12:45.033Z,13.70
2019-03-03T12:17:07.573Z,13.90
2019-03-03T12:21:21.661Z,13.99
2019-03-03T12:25:54.047Z,14.04
2019-03-03T12:30:20.448Z,14.11
2019-03-03T12:34:43.922Z,14.23
2019-03-03T12:39:10.002Z,14.33
2019-03-03T12:43:42.552Z,14.37
2019-03-03T12:48:05.876Z,14.36
2019-03-03T12:52:20.265Z,14.33
2019-03-03T12:56:40.497Z,14.34
2019-03-03T13:01:02.880Z,14.35
2019-03-03T13:05:23.229Z,14.49
2019-03-03T13:09:40.884Z,14.58
2019-03-03T13:13:55.386Z,14.68
2019-03-03T13:18:25.824Z,14.78
2019-03-03T13:22:42.024Z,14.90
2019-03-03T13:27:05.273Z,14.94
2019-03-03T13:31:18.857Z,14.96
2019-03-03T13:35:53.190Z,14.99
2019-03-03T13:40:29.978Z,14.95
2019-03-03T13:44:34.760Z,14.90
2019-03-03T13:48:39.952Z,14.86
2019-03-03T13:52:45.730Z,14.88
2019-03-03T13:56:50.833Z,14.86
2019-03-03T14:00:55.775Z,14.89
2019-03-03T14:05:00.786Z,14.94
2019-03-03T14:09:07.829Z,14.98
2019-03-03T14:13:13.238Z,15.08
2019-03-03T14:17:18.486Z,15.09
2019-03-03T14:21:23.129Z,15.08
2019-03-03T14:25:28.613Z,15.09
2019-03-03T14:29:33.507Z,15.05
2019-03-03T14:33:38.596Z,15.06
2019-03-03T14:37:43.354Z,15.02
2019-03-03T14:41:47.667Z,14.98
2019-03-03T14:45:51.902Z,14.97
2019-03-03T14:49:56.249Z,14.97
2019-03-03T14:54:00.511Z,15.00
2019-03-03T14:58:04.792Z,15.02
2019-03-03T15:02:09.542Z,15.03
2019-03-03T15:06:13.856Z,15.03
2019-03-03T15:10:18.717Z,15.06
2019-03-03T15:14:22.946Z,15.08
2019-03-03T15:18:27.221Z,15.13
2019-03-03T15:22:31.437Z,15.14
2019-03-03T15:26:35.697Z,15.14
2019-03-03T15:30:40.012Z,15.15
2019-03-03T15:34:44.233Z,15.13
2019-03-03T15:38:48.477Z,15.09
2019-03-03T15:42:52.944Z,15.02
2019-03-03T15:46:57.182Z,15.00
2019-03-03T15:51:01.446Z,14.97
2019-03-03T15:55:06.790Z,14.96
2019-03-03T15:59:10.975Z,14.94
2019-03-03T16:03:15.259Z,14.91
2019-03-03T16:07:19.471Z,14.92
2019-03-03T16:11:23.804Z,14.89
2019-03-03T16:15:28.181Z,14.90
2019-03-03T16:19:32.559Z,14.86
2019-03-03T16:23:36.925Z,14.84
2019-03-03T16:27:42.160Z,14.81
2019-03-03T16:31:46.669Z,14.76
2019-03-03T16:35:51.207Z,14.69
2019-03-03T16:39:55.454Z,14.65
2019-03-03T16:44:01.041Z,14.62
2019-03-03T16:48:05.367Z,14.61
2019-03-03T16:52:09.879Z,14.60
2019-03-03T16:56:14.445Z,14.57
2019-03-03T17:00:20.183Z,14.57
2019-03-03T17:04:24.457Z,14.53
2019-03-03T17:08:28.721Z,14.45
2019-03-03T17:12:33.066Z,14.34
2019-03-03T17:16:37.357Z,14.27
2019-03-03T17:20:41.962Z,14.16
2019-03-03T17:24:46.204Z,14.03
2019-03-03T17:28:51.005Z,13.92
2019-03-03T17:32:55.658Z,13.87
2019-03-03T17:36:59.896Z,13.83
2019-03-03T17:41:04.326Z,13.78
2019-03-03T17:45:11.559Z,13.72
2019-03-03T17:49:15.780Z,13.68
2019-03-03T17:53:20.366Z,13.64
2019-03-03T17:57:25.235Z,13.58
2019-03-03T18:01:29.510Z,13.50
2019-03-03T18:05:33.859Z,13.45
2019-03-03T18:09:38.158Z,13.44
2019-03-03T18:13:42.948Z,13.45
2019-03-03T18:17:47.283Z,13.46
2019-03-03T18:21:51.545Z,13.43
2019-03-03T18:25:55.800Z,13.39
2019-03-03T18:30:00.021Z,13.35
2019-03-03T18:34:04.479Z,13.29
2019-03-03T18:38:08.710Z,13.21
2019-03-03T18:42:12.972Z,13.14
2019-03-03T18:46:17.530Z,13.10
2019-03-03T18:50:21.879Z,13.04
2019-03-03T18:54:26.146Z,12.93
2019-03-03T18:58:30.371Z,12.88
2019-03-03T19:02:34.613Z,12.59
2019-03-03T19:06:38.909Z,12.59
2019-03-03T19:10:43.144Z,12.55
2019-03-03T19:14:47.484Z,12.52
2019-03-03T19:18:53.067Z,12.50
2019-03-03T19:22:57.529Z,12.45
2019-03-03T19:27:02.894Z,12.35
2019-03-03T19:31:07.706Z,12.37
2019-03-03T19:35:12.982Z,12.29
2019-03-03T19:39:17.518Z,12.21
2019-03-03T19:43:21.749Z,12.08
2019-03-03T19:47:26.597Z,12.04
2019-03-03T19:51:31.223Z,11.99
2019-03-03T19:55:35.524Z,11.92
2019-03-03T19:59:40.612Z,11.81
2019-03-03T20:03:44.927Z,11.81
2019-03-03T20:07:49.118Z,11.72
2019-03-03T20:11:53.405Z,11.63
2019-03-03T20:15:57.639Z,11.54
2019-03-03T20:20:01.922Z,11.37
2019-03-03T20:24:07.357Z,11.17
2019-03-03T20:28:12.657Z,11.11
2019-03-03T20:32:17.949Z,11.06
2019-03-03T20:36:22.380Z,11.06
2019-03-03T20:40:27.932Z,11.01
2019-03-03T20:44:39.418Z,10.92
2019-03-03T20:48:46.449Z,10.82
2019-03-03T20:52:52.178Z,10.51
2019-03-03T20:56:57.992Z,10.51
2019-03-03T21:01:05.899Z,10.43
2019-03-03T21:05:11.682Z,10.40
2019-03-03T21:09:16.415Z,10.28
2019-03-03T21:13:20.676Z,10.21
2019-03-03T21:17:25.651Z,10.08
2019-03-03T21:21:30.236Z,9.94
2019-03-03T21:25:35.164Z,9.90
2019-03-03T21:29:39.955Z,9.82
2019-03-03T21:33:44.974Z,9.83
2019-03-03T21:37:49.872Z,9.75
2019-03-03T21:41:57.501Z,9.66
2019-03-03T21:46:02.361Z,9.59
2019-03-03T21:50:10.557Z,9.53
2019-03-03T21:54:18.195Z,9.41
2019-03-03T21:58:22.361Z,9.30
2019-03-03T22:02:26.916Z,9.26
2019-03-03T22:06:32.826Z,9.29
2019-03-03T22:10:42.318Z,9.25
2019-03-03T22:14:46.596Z,9.19
2019-03-03T22:18:51.215Z,9.17
2019-03-03T22:22:58.273Z,9.19
2019-03-03T22:27:03.043Z,9.19
2019-03-03T22:31:08.191Z,9.16
2019-03-03T22:35:14.545Z,9.18
2019-03-03T22:39:18.712Z,9.15
2019-03-03T22:43:24.339Z,9.22
2019-03-03T22:47:27.173Z,9.18
2019-03-03T22:51:30.443Z,9.12
2019-03-03T22:55:40.517Z,9.09
2019-03-03T22:59:45.000Z,9.09
2019-03-03T23:04:09.548Z,9.07
2019-03-03T23:08:28.469Z,9.05
2019-03-03T23:12:45.113Z,9.07
2019-03-03T23:17:44.352Z,9.07
2019-03-03T23:22:22.704Z,9.08
2019-03-03T23:26:28.789Z,9.08
2019-03-03T23:30:34.091Z,9.03
2019-03-03T23:34:40.258Z,9.00
2019-03-03T23:38:44.452Z,8.97
2019-03-03T23:42:48.696Z,8.91
2019-03-03T23:46:52.926Z,8.91
2019-03-03T23:50:57.161Z,8.88
2019-03-03T23:55:01.599Z,8.88
2019-03-03T23:59:08.991Z,8.90
